Ogden Hinckley Airport
KOGD : now visible

Airfield :











YOU CAN JOIN US ON...

 
LOGIN :

Register | Disclaimer

   EN    FR    IT 

 









Legend :    VFR   Marginal VFR   IFR   Intensive IFR   Very Intensive IFR
Visi :
Ceiling :
>= 8 km
>= 3000ft
5 to 8 km
1000 to 3000 ft
1500m to 5 km
500 to 1000 ft
800 to 1500m
200 to 500 ft
< 800m
< 200 ft
Symbols :   Thunderstorms  Fog  Heavy snow  Heavy precipitations  Wind > 20 kt






- Airport Elevation : 4473 ft


KOGD - Ogden Hinckley

CURRENT METAR :
  • 150353Z AUTO 17005KT 10SM CLR 25/02 A3015 RMK AO2 SLP147 T02500017 $

EXPIRED METARs :
  • 150253Z AUTO 19004KT 10SM CLR 28/M02 A3013 RMK AO2 SLP142 T02781017 56005 $
  • 150153Z 21003KT 10SM CLR 30/M04 A3013 RMK AO2 SLP144 T03001039 $

TAF KOGD
Valid from the 15 at 00:00 until the 16 at 00:00 UTC


142320Z 1500/1524 26005KT P6SM SKC
FM150400 17006KT P6SM SKC
FM151700 25005KT P6SM SKC
KZLC FIR / North America



MET'MAP, your aeronautical weather chart ! - Copyright ORBIFLY December 2007 - Disclaimer

ORBIFLY MET'MAP TEAM :

Programming & Development : Alexandra Zaïnal
Concept & original design : Baudouin d'Aumeries
Assistance for programming : Marc-Olivier Méhu
Technical & hardware support : Manuel Goepfert

Contact : metmap@orbifly.com




SOURCES & CREDITS :

   NOAA       Earth
Advisory